Radisson, New York
Current Conditions -  °F | °C
As of 4:54 PM on Sunday 23 Nov 2014 (Local Time) from KFZY Reporting Station
Overcast Overcast  
Wind Chill: 47°   Ceiling: 5500
Heat Index: 49°   Visibility: 10mi
Dew Point: 40°   Wind: 5mph
Humidity: 71%   Direction: 130°SE
Pressure: 29.97"   Gusts: NA
Location:  43.1825°N, 76.3664°W
Report Text: KFZY 232154Z AUTO 13004KT 10SM OVC055 09/04 A2997 RMK AO2 SLP150 T00940044
Loading
Personal Weather Stations






























Interactive Weather Map New forecast layout! Learn more

10-Day Weather Forecast

Advertisements
Track Severe Weather on mobile